sensor_id;sensor_type;location;lat;lon;timestamp;P1;durP1;ratioP1;P2;durP2;ratioP2
10277;SDS011;5184;51.376;7.148;2023-04-06T00:02:16;12.77;;;8.43;;
10277;SDS011;5184;51.376;7.148;2023-04-06T00:04:42;12.37;;;8.47;;
10277;SDS011;5184;51.376;7.148;2023-04-06T00:07:10;12.97;;;8.20;;
10277;SDS011;5184;51.376;7.148;2023-04-06T00:09:37;11.00;;;7.80;;
10277;SDS011;5184;51.376;7.148;2023-04-06T00:12:04;10.73;;;8.10;;
10277;SDS011;5184;51.376;7.148;2023-04-06T00:14:31;11.83;;;8.33;;
10277;SDS011;5184;51.376;7.148;2023-04-06T00:16:58;14.70;;;9.40;;
10277;SDS011;5184;51.376;7.148;2023-04-06T00:19:26;11.30;;;7.87;;
10277;SDS011;5184;51.376;7.148;2023-04-06T00:21:53;11.23;;;8.03;;
10277;SDS011;5184;51.376;7.148;2023-04-06T00:24:20;12.70;;;8.50;;
10277;SDS011;5184;51.376;7.148;2023-04-06T00:26:46;13.20;;;7.90;;
10277;SDS011;5184;51.376;7.148;2023-04-06T00:29:13;12.00;;;7.57;;
10277;SDS011;5184;51.376;7.148;2023-04-06T00:31:40;10.57;;;7.60;;
10277;SDS011;5184;51.376;7.148;2023-04-06T00:34:06;11.90;;;7.87;;
10277;SDS011;5184;51.376;7.148;2023-04-06T00:36:33;12.73;;;8.43;;
10277;SDS011;5184;51.376;7.148;2023-04-06T00:38:59;11.87;;;8.43;;
10277;SDS011;5184;51.376;7.148;2023-04-06T00:41:27;12.03;;;7.90;;
10277;SDS011;5184;51.376;7.148;2023-04-06T00:43:54;11.97;;;8.37;;
10277;SDS011;5184;51.376;7.148;2023-04-06T00:46:21;10.47;;;7.90;;
10277;SDS011;5184;51.376;7.148;2023-04-06T00:48:47;13.03;;;8.30;;
10277;SDS011;5184;51.376;7.148;2023-04-06T00:51:14;10.90;;;7.93;;
10277;SDS011;5184;51.376;7.148;2023-04-06T00:53:41;12.57;;;8.60;;
10277;SDS011;5184;51.376;7.148;2023-04-06T00:56:09;12.50;;;8.53;;
10277;SDS011;5184;51.376;7.148;2023-04-06T00:58:36;11.47;;;8.17;;
10277;SDS011;5184;51.376;7.148;2023-04-06T01:01:03;12.37;;;8.57;;
10277;SDS011;5184;51.376;7.148;2023-04-06T01:03:30;13.07;;;8.60;;
10277;SDS011;5184;51.376;7.148;2023-04-06T01:05:57;13.70;;;9.10;;
10277;SDS011;5184;51.376;7.148;2023-04-06T01:08:24;11.03;;;8.43;;
10277;SDS011;5184;51.376;7.148;2023-04-06T01:10:50;11.90;;;8.57;;
10277;SDS011;5184;51.376;7.148;2023-04-06T01:13:17;12.07;;;7.97;;
10277;SDS011;5184;51.376;7.148;2023-04-06T01:15:45;11.77;;;8.20;;
10277;SDS011;5184;51.376;7.148;2023-04-06T01:18:12;10.27;;;8.10;;
10277;SDS011;5184;51.376;7.148;2023-04-06T01:20:38;12.77;;;8.67;;
10277;SDS011;5184;51.376;7.148;2023-04-06T01:23:06;13.70;;;8.83;;
10277;SDS011;5184;51.376;7.148;2023-04-06T01:25:33;13.47;;;8.37;;
10277;SDS011;5184;51.376;7.148;2023-04-06T01:28:00;11.70;;;8.47;;
10277;SDS011;5184;51.376;7.148;2023-04-06T01:30:27;13.23;;;8.93;;
10277;SDS011;5184;51.376;7.148;2023-04-06T01:32:54;11.57;;;8.70;;
10277;SDS011;5184;51.376;7.148;2023-04-06T01:35:21;11.07;;;8.23;;
10277;SDS011;5184;51.376;7.148;2023-04-06T01:37:49;13.53;;;9.20;;
10277;SDS011;5184;51.376;7.148;2023-04-06T01:40:17;12.67;;;8.93;;
10277;SDS011;5184;51.376;7.148;2023-04-06T01:42:44;12.77;;;9.50;;
10277;SDS011;5184;51.376;7.148;2023-04-06T01:45:10;13.33;;;8.63;;
10277;SDS011;5184;51.376;7.148;2023-04-06T01:47:38;13.30;;;9.50;;
10277;SDS011;5184;51.376;7.148;2023-04-06T01:50:05;14.93;;;9.40;;
10277;SDS011;5184;51.376;7.148;2023-04-06T01:52:32;13.20;;;8.77;;
10277;SDS011;5184;51.376;7.148;2023-04-06T01:54:59;12.17;;;8.77;;
10277;SDS011;5184;51.376;7.148;2023-04-06T01:57:25;12.63;;;9.40;;
10277;SDS011;5184;51.376;7.148;2023-04-06T01:59:52;12.90;;;9.20;;
10277;SDS011;5184;51.376;7.148;2023-04-06T02:02:19;11.83;;;8.77;;
10277;SDS011;5184;51.376;7.148;2023-04-06T02:04:46;11.90;;;9.40;;
10277;SDS011;5184;51.376;7.148;2023-04-06T02:07:13;12.87;;;9.17;;
10277;SDS011;5184;51.376;7.148;2023-04-06T02:09:39;11.83;;;8.73;;
10277;SDS011;5184;51.376;7.148;2023-04-06T02:12:06;12.57;;;8.90;;
10277;SDS011;5184;51.376;7.148;2023-04-06T02:14:34;13.87;;;9.73;;
10277;SDS011;5184;51.376;7.148;2023-04-06T02:17:00;14.03;;;9.30;;
10277;SDS011;5184;51.376;7.148;2023-04-06T02:19:27;12.23;;;8.90;;
10277;SDS011;5184;51.376;7.148;2023-04-06T02:21:54;14.37;;;9.40;;
10277;SDS011;5184;51.376;7.148;2023-04-06T02:24:21;13.17;;;9.03;;
10277;SDS011;5184;51.376;7.148;2023-04-06T02:26:48;14.33;;;8.93;;
10277;SDS011;5184;51.376;7.148;2023-04-06T02:29:14;14.13;;;9.40;;
10277;SDS011;5184;51.376;7.148;2023-04-06T02:31:42;11.40;;;8.17;;
10277;SDS011;5184;51.376;7.148;2023-04-06T02:34:08;13.90;;;9.17;;
10277;SDS011;5184;51.376;7.148;2023-04-06T02:36:36;11.37;;;9.03;;
10277;SDS011;5184;51.376;7.148;2023-04-06T02:39:03;12.73;;;9.57;;
10277;SDS011;5184;51.376;7.148;2023-04-06T02:41:29;14.17;;;9.63;;
10277;SDS011;5184;51.376;7.148;2023-04-06T02:43:56;13.00;;;9.60;;
10277;SDS011;5184;51.376;7.148;2023-04-06T02:46:23;13.70;;;9.90;;
10277;SDS011;5184;51.376;7.148;2023-04-06T02:48:49;11.80;;;8.80;;
10277;SDS011;5184;51.376;7.148;2023-04-06T02:51:16;11.30;;;8.97;;
10277;SDS011;5184;51.376;7.148;2023-04-06T02:53:43;14.00;;;9.63;;
10277;SDS011;5184;51.376;7.148;2023-04-06T02:56:10;11.80;;;9.30;;
10277;SDS011;5184;51.376;7.148;2023-04-06T02:58:36;13.97;;;9.33;;
10277;SDS011;5184;51.376;7.148;2023-04-06T03:01:03;11.73;;;8.73;;
10277;SDS011;5184;51.376;7.148;2023-04-06T03:03:30;13.60;;;8.83;;
10277;SDS011;5184;51.376;7.148;2023-04-06T03:05:57;12.77;;;9.00;;
10277;SDS011;5184;51.376;7.148;2023-04-06T03:08:24;14.60;;;9.53;;
10277;SDS011;5184;51.376;7.148;2023-04-06T03:10:51;13.03;;;9.27;;
10277;SDS011;5184;51.376;7.148;2023-04-06T03:13:18;14.13;;;9.50;;
10277;SDS011;5184;51.376;7.148;2023-04-06T03:15:44;11.43;;;9.10;;
10277;SDS011;5184;51.376;7.148;2023-04-06T03:18:11;12.40;;;9.07;;
10277;SDS011;5184;51.376;7.148;2023-04-06T03:20:37;13.77;;;9.40;;
10277;SDS011;5184;51.376;7.148;2023-04-06T03:23:05;11.53;;;8.83;;
10277;SDS011;5184;51.376;7.148;2023-04-06T03:25:31;14.10;;;10.00;;
10277;SDS011;5184;51.376;7.148;2023-04-06T03:27:58;12.97;;;9.17;;
10277;SDS011;5184;51.376;7.148;2023-04-06T03:30:25;14.80;;;10.10;;
10277;SDS011;5184;51.376;7.148;2023-04-06T03:32:52;13.13;;;9.53;;
10277;SDS011;5184;51.376;7.148;2023-04-06T03:35:19;12.60;;;9.33;;
10277;SDS011;5184;51.376;7.148;2023-04-06T03:37:47;13.80;;;9.50;;
10277;SDS011;5184;51.376;7.148;2023-04-06T03:40:13;13.80;;;9.77;;
10277;SDS011;5184;51.376;7.148;2023-04-06T03:42:40;13.83;;;9.20;;
10277;SDS011;5184;51.376;7.148;2023-04-06T03:45:07;14.77;;;10.60;;
10277;SDS011;5184;51.376;7.148;2023-04-06T03:47:34;14.83;;;10.00;;
10277;SDS011;5184;51.376;7.148;2023-04-06T03:50:01;11.80;;;9.13;;
10277;SDS011;5184;51.376;7.148;2023-04-06T03:52:27;15.20;;;9.73;;
10277;SDS011;5184;51.376;7.148;2023-04-06T03:54:54;13.87;;;9.80;;
10277;SDS011;5184;51.376;7.148;2023-04-06T03:57:21;15.47;;;9.90;;
10277;SDS011;5184;51.376;7.148;2023-04-06T03:59:48;14.57;;;9.80;;
10277;SDS011;5184;51.376;7.148;2023-04-06T04:02:15;12.37;;;9.00;;
10277;SDS011;5184;51.376;7.148;2023-04-06T04:04:43;13.27;;;9.63;;
10277;SDS011;5184;51.376;7.148;2023-04-06T04:07:09;14.37;;;10.20;;
10277;SDS011;5184;51.376;7.148;2023-04-06T04:09:36;15.77;;;9.53;;
10277;SDS011;5184;51.376;7.148;2023-04-06T04:12:05;12.33;;;8.83;;
10277;SDS011;5184;51.376;7.148;2023-04-06T04:14:32;13.00;;;9.90;;
10277;SDS011;5184;51.376;7.148;2023-04-06T04:16:59;21.60;;;10.27;;
10277;SDS011;5184;51.376;7.148;2023-04-06T04:19:26;14.70;;;9.70;;
10277;SDS011;5184;51.376;7.148;2023-04-06T04:21:52;14.70;;;9.93;;
10277;SDS011;5184;51.376;7.148;2023-04-06T04:24:19;15.53;;;10.17;;
10277;SDS011;5184;51.376;7.148;2023-04-06T04:26:46;13.97;;;9.80;;
10277;SDS011;5184;51.376;7.148;2023-04-06T04:29:13;13.07;;;9.70;;
10277;SDS011;5184;51.376;7.148;2023-04-06T04:31:40;13.23;;;9.53;;
10277;SDS011;5184;51.376;7.148;2023-04-06T04:34:06;12.43;;;9.97;;
10277;SDS011;5184;51.376;7.148;2023-04-06T04:36:33;13.27;;;8.90;;
10277;SDS011;5184;51.376;7.148;2023-04-06T04:38:59;15.10;;;9.37;;
10277;SDS011;5184;51.376;7.148;2023-04-06T04:41:27;13.30;;;9.17;;
10277;SDS011;5184;51.376;7.148;2023-04-06T04:43:54;13.20;;;9.23;;
10277;SDS011;5184;51.376;7.148;2023-04-06T04:46:21;15.93;;;9.77;;
10277;SDS011;5184;51.376;7.148;2023-04-06T04:48:47;11.60;;;9.03;;
10277;SDS011;5184;51.376;7.148;2023-04-06T04:51:14;13.13;;;9.37;;
10277;SDS011;5184;51.376;7.148;2023-04-06T04:53:41;15.07;;;9.13;;
10277;SDS011;5184;51.376;7.148;2023-04-06T04:56:08;14.20;;;9.60;;
10277;SDS011;5184;51.376;7.148;2023-04-06T04:58:35;12.40;;;9.23;;
10277;SDS011;5184;51.376;7.148;2023-04-06T05:01:01;13.70;;;9.07;;
10277;SDS011;5184;51.376;7.148;2023-04-06T05:03:29;14.40;;;10.10;;
10277;SDS011;5184;51.376;7.148;2023-04-06T05:05:55;14.30;;;9.57;;
10277;SDS011;5184;51.376;7.148;2023-04-06T05:08:22;13.03;;;9.10;;
10277;SDS011;5184;51.376;7.148;2023-04-06T05:10:48;12.63;;;9.37;;
10277;SDS011;5184;51.376;7.148;2023-04-06T05:13:15;13.23;;;9.10;;
10277;SDS011;5184;51.376;7.148;2023-04-06T05:15:42;13.93;;;9.50;;
10277;SDS011;5184;51.376;7.148;2023-04-06T05:18:08;13.80;;;8.73;;
10277;SDS011;5184;51.376;7.148;2023-04-06T05:20:36;12.50;;;9.10;;
10277;SDS011;5184;51.376;7.148;2023-04-06T05:23:02;13.67;;;9.47;;
10277;SDS011;5184;51.376;7.148;2023-04-06T05:25:29;12.80;;;9.17;;
10277;SDS011;5184;51.376;7.148;2023-04-06T05:27:55;14.77;;;9.83;;
10277;SDS011;5184;51.376;7.148;2023-04-06T05:30:22;11.97;;;9.70;;
10277;SDS011;5184;51.376;7.148;2023-04-06T05:32:48;14.67;;;9.37;;
10277;SDS011;5184;51.376;7.148;2023-04-06T05:35:15;11.57;;;8.87;;
10277;SDS011;5184;51.376;7.148;2023-04-06T05:37:42;13.30;;;9.27;;
10277;SDS011;5184;51.376;7.148;2023-04-06T05:40:08;12.00;;;8.57;;
10277;SDS011;5184;51.376;7.148;2023-04-06T05:42:37;12.63;;;9.07;;
10277;SDS011;5184;51.376;7.148;2023-04-06T05:45:05;11.23;;;8.70;;
10277;SDS011;5184;51.376;7.148;2023-04-06T05:47:33;12.27;;;8.93;;
10277;SDS011;5184;51.376;7.148;2023-04-06T05:50:00;13.00;;;9.33;;
10277;SDS011;5184;51.376;7.148;2023-04-06T05:52:27;14.30;;;8.93;;
10277;SDS011;5184;51.376;7.148;2023-04-06T05:54:54;12.33;;;8.57;;
10277;SDS011;5184;51.376;7.148;2023-04-06T05:57:21;11.80;;;8.53;;
10277;SDS011;5184;51.376;7.148;2023-04-06T05:59:48;11.93;;;8.27;;
10277;SDS011;5184;51.376;7.148;2023-04-06T06:02:15;10.20;;;8.30;;
10277;SDS011;5184;51.376;7.148;2023-04-06T06:04:41;11.40;;;8.50;;
10277;SDS011;5184;51.376;7.148;2023-04-06T06:07:09;10.70;;;8.50;;
10277;SDS011;5184;51.376;7.148;2023-04-06T06:09:35;12.30;;;9.00;;
10277;SDS011;5184;51.376;7.148;2023-04-06T06:12:03;12.33;;;8.60;;
10277;SDS011;5184;51.376;7.148;2023-04-06T06:14:29;11.57;;;7.67;;
10277;SDS011;5184;51.376;7.148;2023-04-06T06:16:56;12.77;;;8.97;;
10277;SDS011;5184;51.376;7.148;2023-04-06T06:19:25;11.47;;;9.03;;
10277;SDS011;5184;51.376;7.148;2023-04-06T06:21:51;11.27;;;8.73;;
10277;SDS011;5184;51.376;7.148;2023-04-06T06:24:17;11.53;;;8.33;;
10277;SDS011;5184;51.376;7.148;2023-04-06T06:26:45;10.80;;;8.30;;
10277;SDS011;5184;51.376;7.148;2023-04-06T06:29:12;12.83;;;8.87;;
10277;SDS011;5184;51.376;7.148;2023-04-06T06:31:39;12.20;;;8.93;;
10277;SDS011;5184;51.376;7.148;2023-04-06T06:34:07;12.77;;;9.27;;
10277;SDS011;5184;51.376;7.148;2023-04-06T06:36:33;11.40;;;8.37;;
10277;SDS011;5184;51.376;7.148;2023-04-06T06:39:00;11.13;;;8.97;;
10277;SDS011;5184;51.376;7.148;2023-04-06T06:41:26;13.20;;;8.87;;
10277;SDS011;5184;51.376;7.148;2023-04-06T06:43:53;11.67;;;8.27;;
10277;SDS011;5184;51.376;7.148;2023-04-06T06:46:20;10.53;;;8.30;;
10277;SDS011;5184;51.376;7.148;2023-04-06T06:48:46;9.40;;;8.10;;
10277;SDS011;5184;51.376;7.148;2023-04-06T06:51:13;9.40;;;7.90;;
10277;SDS011;5184;51.376;7.148;2023-04-06T06:53:39;12.13;;;8.27;;
10277;SDS011;5184;51.376;7.148;2023-04-06T06:56:06;12.17;;;8.37;;
10277;SDS011;5184;51.376;7.148;2023-04-06T06:58:33;11.60;;;8.23;;
10277;SDS011;5184;51.376;7.148;2023-04-06T07:00:59;11.83;;;8.43;;
10277;SDS011;5184;51.376;7.148;2023-04-06T07:03:26;11.03;;;8.37;;
10277;SDS011;5184;51.376;7.148;2023-04-06T07:05:53;11.07;;;8.37;;
10277;SDS011;5184;51.376;7.148;2023-04-06T07:08:21;13.63;;;8.27;;
10277;SDS011;5184;51.376;7.148;2023-04-06T07:10:47;12.57;;;7.80;;
10277;SDS011;5184;51.376;7.148;2023-04-06T07:13:14;9.10;;;8.03;;
10277;SDS011;5184;51.376;7.148;2023-04-06T07:15:41;9.43;;;7.13;;
10277;SDS011;5184;51.376;7.148;2023-04-06T07:18:08;9.57;;;7.27;;
10277;SDS011;5184;51.376;7.148;2023-04-06T07:20:35;8.67;;;6.97;;
10277;SDS011;5184;51.376;7.148;2023-04-06T07:23:02;10.23;;;7.57;;
10277;SDS011;5184;51.376;7.148;2023-04-06T07:25:29;12.07;;;7.70;;
10277;SDS011;5184;51.376;7.148;2023-04-06T07:27:55;9.50;;;6.70;;
10277;SDS011;5184;51.376;7.148;2023-04-06T07:30:21;11.93;;;7.40;;
10277;SDS011;5184;51.376;7.148;2023-04-06T07:32:49;10.43;;;7.37;;
10277;SDS011;5184;51.376;7.148;2023-04-06T07:35:16;10.57;;;7.30;;
10277;SDS011;5184;51.376;7.148;2023-04-06T07:37:43;11.13;;;7.57;;
10277;SDS011;5184;51.376;7.148;2023-04-06T07:40:11;9.50;;;6.57;;
10277;SDS011;5184;51.376;7.148;2023-04-06T07:42:38;8.97;;;7.60;;
10277;SDS011;5184;51.376;7.148;2023-04-06T07:45:06;10.73;;;7.13;;
10277;SDS011;5184;51.376;7.148;2023-04-06T07:47:33;9.67;;;6.93;;
10277;SDS011;5184;51.376;7.148;2023-04-06T07:50:00;8.47;;;7.13;;
10277;SDS011;5184;51.376;7.148;2023-04-06T07:52:27;10.70;;;7.33;;
10277;SDS011;5184;51.376;7.148;2023-04-06T07:54:54;9.97;;;7.33;;
10277;SDS011;5184;51.376;7.148;2023-04-06T07:57:21;8.93;;;6.23;;
10277;SDS011;5184;51.376;7.148;2023-04-06T07:59:48;9.67;;;6.50;;
10277;SDS011;5184;51.376;7.148;2023-04-06T08:02:15;8.33;;;6.87;;
10277;SDS011;5184;51.376;7.148;2023-04-06T08:04:43;8.90;;;6.97;;
10277;SDS011;5184;51.376;7.148;2023-04-06T08:07:10;9.57;;;6.87;;
10277;SDS011;5184;51.376;7.148;2023-04-06T08:09:37;9.23;;;7.17;;
10277;SDS011;5184;51.376;7.148;2023-04-06T08:12:03;8.93;;;7.20;;
10277;SDS011;5184;51.376;7.148;2023-04-06T08:14:30;9.77;;;6.80;;
10277;SDS011;5184;51.376;7.148;2023-04-06T08:16:56;11.43;;;6.70;;
10277;SDS011;5184;51.376;7.148;2023-04-06T08:19:23;8.87;;;7.03;;
10277;SDS011;5184;51.376;7.148;2023-04-06T08:21:50;12.27;;;7.63;;
10277;SDS011;5184;51.376;7.148;2023-04-06T08:24:16;13.17;;;7.87;;
10277;SDS011;5184;51.376;7.148;2023-04-06T08:26:43;10.17;;;7.87;;
10277;SDS011;5184;51.376;7.148;2023-04-06T08:29:09;9.87;;;7.87;;
10277;SDS011;5184;51.376;7.148;2023-04-06T08:31:36;11.60;;;8.30;;
10277;SDS011;5184;51.376;7.148;2023-04-06T08:34:03;12.20;;;8.40;;
10277;SDS011;5184;51.376;7.148;2023-04-06T08:36:29;10.30;;;7.50;;
10277;SDS011;5184;51.376;7.148;2023-04-06T08:38:56;10.53;;;8.20;;
10277;SDS011;5184;51.376;7.148;2023-04-06T08:41:22;10.30;;;7.87;;
10277;SDS011;5184;51.376;7.148;2023-04-06T08:43:50;9.50;;;7.57;;
10277;SDS011;5184;51.376;7.148;2023-04-06T08:46:16;11.00;;;8.60;;
10277;SDS011;5184;51.376;7.148;2023-04-06T08:48:43;14.10;;;8.57;;
10277;SDS011;5184;51.376;7.148;2023-04-06T08:51:10;13.20;;;8.80;;
10277;SDS011;5184;51.376;7.148;2023-04-06T08:53:38;11.57;;;8.83;;
10277;SDS011;5184;51.376;7.148;2023-04-06T08:56:05;13.23;;;9.30;;
10277;SDS011;5184;51.376;7.148;2023-04-06T08:58:33;12.00;;;8.10;;
10277;SDS011;5184;51.376;7.148;2023-04-06T09:00:59;10.97;;;7.87;;
10277;SDS011;5184;51.376;7.148;2023-04-06T09:03:26;13.23;;;9.03;;
10277;SDS011;5184;51.376;7.148;2023-04-06T09:05:52;12.77;;;9.00;;
10277;SDS011;5184;51.376;7.148;2023-04-06T09:08:20;15.50;;;9.03;;
10277;SDS011;5184;51.376;7.148;2023-04-06T09:10:47;20.77;;;9.47;;
10277;SDS011;5184;51.376;7.148;2023-04-06T09:13:13;16.07;;;9.67;;
10277;SDS011;5184;51.376;7.148;2023-04-06T09:15:41;12.53;;;9.30;;
10277;SDS011;5184;51.376;7.148;2023-04-06T09:18:09;12.13;;;9.20;;
10277;SDS011;5184;51.376;7.148;2023-04-06T09:20:36;16.40;;;9.97;;
10277;SDS011;5184;51.376;7.148;2023-04-06T09:23:03;12.73;;;9.20;;
10277;SDS011;5184;51.376;7.148;2023-04-06T09:25:30;12.57;;;9.70;;
10277;SDS011;5184;51.376;7.148;2023-04-06T09:27:59;12.23;;;9.67;;
10277;SDS011;5184;51.376;7.148;2023-04-06T09:30:24;12.00;;;9.70;;
10277;SDS011;5184;51.376;7.148;2023-04-06T09:32:52;15.40;;;9.53;;
10277;SDS011;5184;51.376;7.148;2023-04-06T09:35:18;12.50;;;10.47;;
10277;SDS011;5184;51.376;7.148;2023-04-06T09:37:46;17.63;;;11.70;;
10277;SDS011;5184;51.376;7.148;2023-04-06T09:40:13;17.87;;;11.70;;
10277;SDS011;5184;51.376;7.148;2023-04-06T09:42:41;15.57;;;10.37;;
10277;SDS011;5184;51.376;7.148;2023-04-06T09:45:07;14.53;;;11.30;;
10277;SDS011;5184;51.376;7.148;2023-04-06T09:47:35;13.73;;;10.60;;
10277;SDS011;5184;51.376;7.148;2023-04-06T09:50:02;14.33;;;10.73;;
10277;SDS011;5184;51.376;7.148;2023-04-06T09:52:31;14.63;;;10.70;;
10277;SDS011;5184;51.376;7.148;2023-04-06T09:55:01;14.73;;;11.10;;
10277;SDS011;5184;51.376;7.148;2023-04-06T09:57:28;15.00;;;11.37;;
10277;SDS011;5184;51.376;7.148;2023-04-06T09:59:58;13.57;;;10.97;;
10277;SDS011;5184;51.376;7.148;2023-04-06T10:02:31;14.90;;;11.53;;
10277;SDS011;5184;51.376;7.148;2023-04-06T10:05:12;16.17;;;10.63;;
10277;SDS011;5184;51.376;7.148;2023-04-06T10:07:39;13.60;;;10.63;;
10277;SDS011;5184;51.376;7.148;2023-04-06T10:10:05;14.63;;;12.07;;
10277;SDS011;5184;51.376;7.148;2023-04-06T10:12:33;15.23;;;11.63;;
10277;SDS011;5184;51.376;7.148;2023-04-06T10:15:00;14.37;;;11.23;;
10277;SDS011;5184;51.376;7.148;2023-04-06T10:17:26;16.53;;;11.30;;
10277;SDS011;5184;51.376;7.148;2023-04-06T10:19:54;14.87;;;10.90;;
10277;SDS011;5184;51.376;7.148;2023-04-06T10:22:24;13.23;;;11.03;;
10277;SDS011;5184;51.376;7.148;2023-04-06T10:24:49;15.93;;;11.70;;
10277;SDS011;5184;51.376;7.148;2023-04-06T10:27:16;13.77;;;11.87;;
10277;SDS011;5184;51.376;7.148;2023-04-06T10:29:45;14.83;;;11.07;;
10277;SDS011;5184;51.376;7.148;2023-04-06T10:32:11;16.93;;;12.10;;
10277;SDS011;5184;51.376;7.148;2023-04-06T10:34:37;18.23;;;12.40;;
10277;SDS011;5184;51.376;7.148;2023-04-06T10:37:10;17.10;;;12.87;;
10277;SDS011;5184;51.376;7.148;2023-04-06T10:39:45;13.57;;;11.53;;
10277;SDS011;5184;51.376;7.148;2023-04-06T10:42:06;14.80;;;11.97;;
10277;SDS011;5184;51.376;7.148;2023-04-06T10:44:30;14.07;;;11.50;;
10277;SDS011;5184;51.376;7.148;2023-04-06T10:46:57;15.97;;;12.03;;
10277;SDS011;5184;51.376;7.148;2023-04-06T10:49:24;15.63;;;12.07;;
10277;SDS011;5184;51.376;7.148;2023-04-06T10:51:51;15.17;;;12.00;;
10277;SDS011;5184;51.376;7.148;2023-04-06T10:54:18;16.50;;;12.80;;
10277;SDS011;5184;51.376;7.148;2023-04-06T10:56:44;15.37;;;12.10;;
10277;SDS011;5184;51.376;7.148;2023-04-06T10:59:11;17.40;;;13.03;;
10277;SDS011;5184;51.376;7.148;2023-04-06T11:01:38;17.53;;;13.20;;
10277;SDS011;5184;51.376;7.148;2023-04-06T11:04:05;17.30;;;13.57;;
10277;SDS011;5184;51.376;7.148;2023-04-06T11:06:32;20.10;;;14.13;;
10277;SDS011;5184;51.376;7.148;2023-04-06T11:08:59;18.07;;;14.93;;
10277;SDS011;5184;51.376;7.148;2023-04-06T11:11:26;17.33;;;14.67;;
10277;SDS011;5184;51.376;7.148;2023-04-06T11:13:54;23.00;;;16.50;;
10277;SDS011;5184;51.376;7.148;2023-04-06T11:16:21;20.33;;;15.90;;
10277;SDS011;5184;51.376;7.148;2023-04-06T11:18:58;21.30;;;15.83;;
10277;SDS011;5184;51.376;7.148;2023-04-06T11:24:07;19.67;;;14.97;;
10277;SDS011;5184;51.376;7.148;2023-04-06T11:26:46;21.50;;;15.17;;
10277;SDS011;5184;51.376;7.148;2023-04-06T11:29:15;19.87;;;14.57;;
10277;SDS011;5184;51.376;7.148;2023-04-06T11:31:45;20.20;;;13.47;;
10277;SDS011;5184;51.376;7.148;2023-04-06T11:34:12;15.50;;;12.63;;
10277;SDS011;5184;51.376;7.148;2023-04-06T11:36:39;18.43;;;13.20;;
10277;SDS011;5184;51.376;7.148;2023-04-06T11:39:06;19.70;;;12.77;;
10277;SDS011;5184;51.376;7.148;2023-04-06T11:44:03;16.23;;;12.53;;
10277;SDS011;5184;51.376;7.148;2023-04-06T11:46:30;16.67;;;12.50;;
10277;SDS011;5184;51.376;7.148;2023-04-06T11:48:58;15.60;;;11.90;;
10277;SDS011;5184;51.376;7.148;2023-04-06T11:51:25;14.57;;;11.47;;
10277;SDS011;5184;51.376;7.148;2023-04-06T11:53:52;15.93;;;11.37;;
10277;SDS011;5184;51.376;7.148;2023-04-06T11:56:24;15.03;;;10.93;;
10277;SDS011;5184;51.376;7.148;2023-04-06T11:58:51;16.63;;;12.17;;
10277;SDS011;5184;51.376;7.148;2023-04-06T12:01:17;18.57;;;12.50;;
10277;SDS011;5184;51.376;7.148;2023-04-06T12:03:44;15.63;;;11.33;;
10277;SDS011;5184;51.376;7.148;2023-04-06T12:06:11;19.40;;;15.53;;
10277;SDS011;5184;51.376;7.148;2023-04-06T12:08:37;15.07;;;12.30;;
10277;SDS011;5184;51.376;7.148;2023-04-06T12:11:04;14.97;;;11.87;;
10277;SDS011;5184;51.376;7.148;2023-04-06T12:13:31;17.63;;;12.80;;
10277;SDS011;5184;51.376;7.148;2023-04-06T12:15:59;20.57;;;13.30;;
10277;SDS011;5184;51.376;7.148;2023-04-06T12:18:25;15.57;;;12.50;;
10277;SDS011;5184;51.376;7.148;2023-04-06T12:20:52;17.50;;;13.30;;
10277;SDS011;5184;51.376;7.148;2023-04-06T12:23:19;16.50;;;12.17;;
10277;SDS011;5184;51.376;7.148;2023-04-06T12:25:45;15.30;;;11.87;;
10277;SDS011;5184;51.376;7.148;2023-04-06T12:28:13;15.83;;;12.87;;
10277;SDS011;5184;51.376;7.148;2023-04-06T12:30:39;19.73;;;14.77;;
10277;SDS011;5184;51.376;7.148;2023-04-06T12:33:07;18.60;;;14.00;;
10277;SDS011;5184;51.376;7.148;2023-04-06T12:35:33;20.80;;;14.83;;
10277;SDS011;5184;51.376;7.148;2023-04-06T12:38:00;17.43;;;12.47;;
10277;SDS011;5184;51.376;7.148;2023-04-06T12:40:26;20.27;;;14.57;;
10277;SDS011;5184;51.376;7.148;2023-04-06T12:42:54;19.70;;;14.20;;
10277;SDS011;5184;51.376;7.148;2023-04-06T12:45:21;17.20;;;13.53;;
10277;SDS011;5184;51.376;7.148;2023-04-06T12:47:49;17.60;;;13.90;;
10277;SDS011;5184;51.376;7.148;2023-04-06T12:50:16;19.90;;;14.10;;
10277;SDS011;5184;51.376;7.148;2023-04-06T12:52:43;18.10;;;13.43;;
10277;SDS011;5184;51.376;7.148;2023-04-06T12:55:10;27.30;;;18.87;;
10277;SDS011;5184;51.376;7.148;2023-04-06T12:57:37;18.40;;;12.67;;
10277;SDS011;5184;51.376;7.148;2023-04-06T13:00:04;21.50;;;13.63;;
10277;SDS011;5184;51.376;7.148;2023-04-06T13:02:32;17.63;;;12.93;;
10277;SDS011;5184;51.376;7.148;2023-04-06T13:04:59;19.20;;;12.97;;
10277;SDS011;5184;51.376;7.148;2023-04-06T13:07:26;16.57;;;12.97;;
10277;SDS011;5184;51.376;7.148;2023-04-06T13:09:52;17.23;;;12.47;;
10277;SDS011;5184;51.376;7.148;2023-04-06T13:12:19;18.17;;;13.13;;
10277;SDS011;5184;51.376;7.148;2023-04-06T13:14:46;15.80;;;12.30;;
10277;SDS011;5184;51.376;7.148;2023-04-06T13:17:13;17.57;;;13.73;;
10277;SDS011;5184;51.376;7.148;2023-04-06T13:19:40;18.53;;;13.40;;
10277;SDS011;5184;51.376;7.148;2023-04-06T13:22:07;19.27;;;12.83;;
10277;SDS011;5184;51.376;7.148;2023-04-06T13:24:35;16.27;;;12.03;;
10277;SDS011;5184;51.376;7.148;2023-04-06T13:27:01;15.67;;;12.53;;
10277;SDS011;5184;51.376;7.148;2023-04-06T13:29:28;15.53;;;12.50;;
10277;SDS011;5184;51.376;7.148;2023-04-06T13:31:55;16.60;;;12.13;;
10277;SDS011;5184;51.376;7.148;2023-04-06T13:34:22;19.37;;;13.17;;
10277;SDS011;5184;51.376;7.148;2023-04-06T13:36:49;17.03;;;12.20;;
10277;SDS011;5184;51.376;7.148;2023-04-06T13:39:15;15.97;;;12.27;;
10277;SDS011;5184;51.376;7.148;2023-04-06T13:41:43;17.00;;;12.90;;
10277;SDS011;5184;51.376;7.148;2023-04-06T13:44:10;17.73;;;12.43;;
10277;SDS011;5184;51.376;7.148;2023-04-06T13:46:37;15.17;;;11.87;;
10277;SDS011;5184;51.376;7.148;2023-04-06T13:49:03;15.53;;;12.33;;
10277;SDS011;5184;51.376;7.148;2023-04-06T13:51:30;17.03;;;12.13;;
10277;SDS011;5184;51.376;7.148;2023-04-06T13:53:56;15.03;;;11.73;;
10277;SDS011;5184;51.376;7.148;2023-04-06T13:56:23;14.73;;;12.53;;
10277;SDS011;5184;51.376;7.148;2023-04-06T13:58:51;15.93;;;11.87;;
10277;SDS011;5184;51.376;7.148;2023-04-06T14:01:17;15.87;;;11.80;;
10277;SDS011;5184;51.376;7.148;2023-04-06T14:03:44;17.00;;;11.70;;
10277;SDS011;5184;51.376;7.148;2023-04-06T14:06:11;19.20;;;12.10;;
10277;SDS011;5184;51.376;7.148;2023-04-06T14:08:37;14.73;;;12.20;;
10277;SDS011;5184;51.376;7.148;2023-04-06T14:11:04;16.40;;;11.93;;
10277;SDS011;5184;51.376;7.148;2023-04-06T14:13:31;17.87;;;12.17;;
10277;SDS011;5184;51.376;7.148;2023-04-06T14:15:59;17.37;;;12.17;;
10277;SDS011;5184;51.376;7.148;2023-04-06T14:18:25;19.40;;;15.07;;
10277;SDS011;5184;51.376;7.148;2023-04-06T14:20:53;16.20;;;13.30;;
10277;SDS011;5184;51.376;7.148;2023-04-06T14:23:19;19.97;;;14.83;;
10277;SDS011;5184;51.376;7.148;2023-04-06T14:25:46;14.13;;;10.83;;
10277;SDS011;5184;51.376;7.148;2023-04-06T14:28:13;17.87;;;12.40;;
10277;SDS011;5184;51.376;7.148;2023-04-06T14:30:39;12.77;;;10.73;;
10277;SDS011;5184;51.376;7.148;2023-04-06T14:33:07;13.93;;;10.20;;
10277;SDS011;5184;51.376;7.148;2023-04-06T14:35:33;13.87;;;10.90;;
10277;SDS011;5184;51.376;7.148;2023-04-06T14:38:00;13.37;;;10.17;;
10277;SDS011;5184;51.376;7.148;2023-04-06T14:40:29;16.07;;;11.13;;
10277;SDS011;5184;51.376;7.148;2023-04-06T14:42:55;12.80;;;10.60;;
10277;SDS011;5184;51.376;7.148;2023-04-06T14:45:22;12.77;;;9.50;;
10277;SDS011;5184;51.376;7.148;2023-04-06T14:47:48;10.33;;;9.03;;